Time;durP1;ratioP1;P1;durP2;ratioP2;P2;SDS_P1;SDS_P2;PMS_P1;PMS_P2;Temp;Humidity;BMP_temperature;BMP_pressure;BME280_temperature;BME280_humidity;BME280_pressure;Samples;Min_cycle;Max_cycle;Signal;HPM_P1;HPM_P2
2022/05/29 00:02:07;;;;;;;7.75;3.80;;;;;;;7.39;75.29;98494.56;5038902;28;20040;-66
2022/05/29 00:04:32;;;;;;;5.28;3.50;;;;;;;7.42;74.88;98484.56;5070452;28;20052;-70
2022/05/29 00:06:58;;;;;;;16.17;3.78;;;;;;;7.42;74.18;98489.88;5024449;28;20040;-69
2022/05/29 00:09:31;;;;;;;12.60;4.22;;;;;;;7.44;74.65;98498.56;5049729;28;20505;-70
2022/05/29 00:11:56;;;;;;;8.18;3.33;;;;;;;7.42;74.33;98492.53;5077614;28;20039;-69
2022/05/29 00:14:21;;;;;;;8.05;3.25;;;;;;;7.42;74.24;98497.00;5054526;28;20046;-69
2022/05/29 00:16:46;;;;;;;7.18;3.08;;;;;;;7.35;74.45;98496.59;5050827;28;20118;-67
2022/05/29 00:19:11;;;;;;;7.38;3.67;;;;;;;7.34;74.39;98494.91;5031443;28;20118;-68
2022/05/29 00:21:36;;;;;;;6.57;3.75;;;;;;;7.34;74.58;98500.22;5035702;28;20063;-68
2022/05/29 00:24:02;;;;;;;5.68;4.03;;;;;;;7.33;74.34;98503.84;5081405;28;20043;-69
2022/05/29 00:26:27;;;;;;;6.05;4.38;;;;;;;7.36;73.83;98500.09;5050116;28;20035;-69
2022/05/29 00:28:51;;;;;;;6.30;3.38;;;;;;;7.38;74.38;98509.63;5063334;27;20111;-69
2022/05/29 00:31:17;;;;;;;7.03;3.80;;;;;;;7.33;75.00;98509.16;5065716;27;20043;-69
2022/05/29 00:33:41;;;;;;;10.57;4.03;;;;;;;7.29;75.32;98519.13;5060869;27;20039;-69
2022/05/29 00:36:13;;;;;;;6.00;3.28;;;;;;;7.31;75.89;98508.41;5053222;27;20039;-72
2022/05/29 00:38:41;;;;;;;5.20;3.92;;;;;;;7.38;75.89;98498.19;5081868;27;20050;-71
2022/05/29 00:41:41;;;;;;;13.57;3.92;;;;;;;7.44;74.66;98510.97;5101778;27;20035;-71
2022/05/29 00:44:14;;;;;;;5.30;3.03;;;;;;;7.46;75.22;98504.56;5000021;28;20139;-69
2022/05/29 00:46:46;;;;;;;4.77;3.30;;;;;;;7.51;74.81;98513.03;4981930;28;20140;-71
2022/05/29 00:49:12;;;;;;;4.40;3.45;;;;;;;7.52;74.02;98514.72;4996423;28;20052;-70
2022/05/29 00:51:42;;;;;;;7.80;3.25;;;;;;;7.53;74.51;98512.91;4996807;28;20404;-69
2022/05/29 00:54:08;;;;;;;6.32;3.08;;;;;;;7.56;74.52;98516.16;4979507;28;20155;-67
2022/05/29 00:56:36;;;;;;;8.68;3.55;;;;;;;7.59;74.72;98510.63;4980391;28;20042;-69
2022/05/29 00:59:02;;;;;;;3.50;3.10;;;;;;;7.67;73.98;98517.16;4990995;28;20132;-74
2022/05/29 01:01:28;;;;;;;5.75;3.28;;;;;;;7.69;74.23;98517.88;4987840;28;20050;-68
2022/05/29 01:03:52;;;;;;;7.13;4.28;;;;;;;7.69;74.07;98516.06;4972172;28;20161;-70
2022/05/29 01:06:17;;;;;;;8.35;3.20;;;;;;;7.71;74.42;98514.13;5003914;28;20136;-71
2022/05/29 01:08:42;;;;;;;5.72;3.50;;;;;;;7.73;74.89;98520.16;5010120;28;20149;-70
2022/05/29 01:11:15;;;;;;;7.80;3.38;;;;;;;7.77;74.58;98518.97;4996691;28;20046;-70
2022/05/29 01:13:54;;;;;;;4.18;3.17;;;;;;;7.81;74.29;98519.56;4981964;28;20079;-68
2022/05/29 01:16:49;;;;;;;7.80;3.30;;;;;;;7.83;74.45;98525.59;4965772;28;20037;-69
2022/05/29 01:19:20;;;;;;;4.40;3.03;;;;;;;7.70;74.37;98528.34;5017625;28;20055;-79
2022/05/29 01:22:13;;;;;;;7.65;3.20;;;;;;;7.76;74.42;98532.38;5074097;28;20039;-74
2022/05/29 01:25:15;;;;;;;5.47;2.50;;;;;;;7.74;73.85;98529.81;5079184;27;20039;-73
2022/05/29 01:28:05;;;;;;;12.25;3.65;;;;;;;7.65;73.87;98533.19;5079924;27;20753;-70
2022/05/29 01:30:35;;;;;;;6.05;3.95;;;;;;;7.57;74.50;98536.41;5058525;27;20058;-71
2022/05/29 01:33:18;;;;;;;4.70;3.10;;;;;;;7.59;74.62;98534.50;5090043;27;20039;-73
2022/05/29 01:35:53;;;;;;;3.78;2.80;;;;;;;7.57;73.97;98541.72;5100386;27;20485;-70
2022/05/29 01:38:24;;;;;;;;;;;;;;;7.67;74.54;98546.34;5094517;27;20043;-70
2022/05/29 01:40:55;;;;;;;4.47;2.75;;;;;;;7.65;73.37;98546.47;5083435;27;19923;-65
2022/05/29 01:43:35;;;;;;;10.15;3.45;;;;;;;7.60;73.43;98549.44;5102230;27;20035;-64
2022/05/29 01:46:33;;;;;;;3.80;3.15;;;;;;;7.68;74.11;98548.00;5081554;27;20054;-66
2022/05/29 01:49:13;;;;;;;7.20;3.35;;;;;;;7.55;73.56;98550.78;5058745;28;20134;-68
2022/05/29 01:51:51;;;;;;;5.28;4.03;;;;;;;7.55;73.96;98550.78;5075123;27;20088;-63
2022/05/29 01:54:39;;;;;;;4.53;3.40;;;;;;;7.53;74.70;98556.19;5098098;27;20046;-65
2022/05/29 01:57:08;;;;;;;4.97;3.35;;;;;;;7.53;74.24;98558.84;5074342;27;20042;-66
2022/05/29 01:59:42;;;;;;;5.78;2.95;;;;;;;7.53;74.17;98556.19;5057453;27;20027;-66
2022/05/29 02:02:13;;;;;;;7.07;3.42;;;;;;;7.50;74.26;98559.06;5044903;27;20040;-67
2022/05/29 02:04:40;;;;;;;5.78;3.08;;;;;;;7.55;74.05;98561.38;5068059;27;20035;-67
2022/05/29 02:10:08;;;;;;;5.25;3.00;;;;;;;7.57;74.91;98565.59;5078486;27;20111;-65
2022/05/29 02:12:35;;;;;;;8.68;2.90;;;;;;;7.46;75.02;98573.53;5044925;27;20369;-66
2022/05/29 02:15:06;;;;;;;7.18;2.60;;;;;;;7.59;74.74;98584.03;5078693;27;20066;-66
2022/05/29 02:17:42;;;;;;;5.60;3.33;;;;;;;7.73;74.30;98580.34;5081327;27;20039;-67
2022/05/29 02:20:23;;;;;;;9.98;2.30;;;;;;;7.81;74.31;98583.25;5072557;27;20524;-66
2022/05/29 02:22:52;;;;;;;5.90;2.85;;;;;;;7.86;73.78;98591.72;5096556;27;20034;-73
2022/05/29 02:25:21;;;;;;;4.25;3.28;;;;;;;7.90;73.98;98593.16;5071538;27;20050;-71
2022/05/29 02:27:52;;;;;;;3.47;1.88;;;;;;;7.88;73.96;98589.78;5046077;28;20067;-72
2022/05/29 02:30:18;;;;;;;6.38;2.35;;;;;;;7.87;74.06;98601.38;5065204;28;20047;-69
2022/05/29 02:33:01;;;;;;;4.75;2.53;;;;;;;7.82;74.66;98607.00;5070169;28;20054;-71
2022/05/29 02:35:48;;;;;;;5.03;2.58;;;;;;;8.03;74.03;98610.66;5089111;28;20130;-70
2022/05/29 02:38:25;;;;;;;4.20;3.10;;;;;;;8.06;73.56;98608.72;5061106;28;20506;-70
2022/05/29 02:41:07;;;;;;;3.85;2.58;;;;;;;8.02;74.41;98614.28;5063646;28;20578;-68
2022/05/29 02:43:58;;;;;;;7.28;3.05;;;;;;;8.20;73.17;98614.66;5066074;28;20150;-75
2022/05/29 02:46:43;;;;;;;4.60;3.08;;;;;;;8.30;73.60;98620.94;5061244;27;20035;-73
2022/05/29 02:49:25;;;;;;;7.05;2.40;;;;;;;8.38;73.38;98637.16;5081585;27;20095;-73
2022/05/29 02:51:52;;;;;;;2.70;2.13;;;;;;;8.52;72.95;98633.41;5077577;27;20047;-72
2022/05/29 02:54:27;;;;;;;7.03;2.70;;;;;;;8.59;72.35;98639.91;5098774;27;20027;-72
2022/05/29 02:56:53;;;;;;;2.70;1.92;;;;;;;8.62;71.69;98630.88;5078413;27;20118;-73
2022/05/29 02:59:20;;;;;;;4.45;1.92;;;;;;;8.59;72.27;98639.06;5066594;27;20401;-77
2022/05/29 03:01:53;;;;;;;2.55;2.15;;;;;;;8.56;72.15;98640.19;5085332;27;20513;-77
2022/05/29 03:04:38;;;;;;;4.57;2.15;;;;;;;8.67;72.92;98649.97;5081812;27;20484;-77
2022/05/29 03:07:24;;;;;;;3.72;2.03;;;;;;;8.84;73.02;98637.97;5075673;27;20132;-77
2022/05/29 03:10:18;;;;;;;2.88;2.25;;;;;;;9.19;71.92;98648.41;5090267;27;20075;-78
2022/05/29 03:13:01;;;;;;;6.05;2.95;;;;;;;9.41;70.49;98643.00;5087548;27;20047;-76
2022/05/29 03:15:47;;;;;;;4.78;2.55;;;;;;;9.61;70.12;98644.00;5086372;27;20070;-77
2022/05/29 03:18:16;;;;;;;2.25;2.05;;;;;;;9.73;69.80;98654.47;5089754;27;20043;-77
2022/05/29 03:20:49;;;;;;;10.30;2.05;;;;;;;9.92;69.34;98652.94;5091424;27;20034;-77
2022/05/29 03:23:22;;;;;;;3.55;2.45;;;;;;;10.15;68.34;98660.69;5085347;27;20039;-78
2022/05/29 03:25:53;;;;;;;3.25;2.40;;;;;;;10.39;67.70;98662.22;5079261;27;20043;-76
2022/05/29 03:28:26;;;;;;;4.00;2.45;;;;;;;10.54;67.01;98660.91;5079289;27;20062;-77
2022/05/29 03:30:54;;;;;;;3.70;3.17;;;;;;;10.66;66.65;98659.84;5062162;27;20035;-76
2022/05/29 03:33:19;;;;;;;3.28;1.90;;;;;;;10.76;66.10;98671.38;5098936;27;20169;-76
2022/05/29 03:35:52;;;;;;;3.95;2.17;;;;;;;10.80;65.84;98670.13;5100554;27;20047;-79
2022/05/29 03:38:17;;;;;;;5.15;1.88;;;;;;;10.66;65.74;98673.16;5078938;27;20459;-76
2022/05/29 03:40:42;;;;;;;3.20;2.35;;;;;;;10.44;65.50;98670.66;5061278;27;20031;-77
2022/05/29 03:43:07;;;;;;;4.20;1.95;;;;;;;10.22;66.40;98677.00;5096905;27;20533;-76
2022/05/29 03:45:32;;;;;;;5.07;2.35;;;;;;;10.21;66.98;98677.13;5078352;27;20035;-78
2022/05/29 03:47:57;;;;;;;3.53;1.83;;;;;;;10.13;67.36;98680.41;5061419;27;20046;-77
2022/05/29 03:50:24;;;;;;;5.00;2.03;;;;;;;10.10;66.56;98684.19;5078010;27;20046;-77
2022/05/29 03:52:49;;;;;;;7.45;2.35;;;;;;;9.89;67.21;98677.16;5078270;27;20116;-76
2022/05/29 03:55:15;;;;;;;2.42;2.05;;;;;;;9.89;67.07;98680.66;5097757;27;20039;-75
2022/05/29 03:57:40;;;;;;;1.85;1.70;;;;;;;10.02;67.46;98686.66;5098993;27;20042;-74
2022/05/29 04:00:09;;;;;;;3.10;2.05;;;;;;;10.14;66.68;98696.28;5080292;27;20034;-76
2022/05/29 04:02:36;;;;;;;1.92;1.40;;;;;;;10.17;66.79;98695.16;5078375;27;20115;-77
2022/05/29 04:05:02;;;;;;;2.85;2.35;;;;;;;10.18;67.11;98702.19;5080902;27;20038;-77
2022/05/29 04:12:56;;;;;;;2.38;1.65;;;;;;;9.83;67.89;98711.28;5080840;27;20050;-76
2022/05/29 04:15:21;;;;;;;3.05;2.45;;;;;;;9.68;69.37;98707.25;5079330;28;20046;-76
2022/05/29 04:17:45;;;;;;;3.33;1.77;;;;;;;9.52;70.22;98712.16;5062322;28;20035;-76
2022/05/29 04:20:11;;;;;;;2.08;1.60;;;;;;;9.45;70.85;98710.97;5077906;27;20039;-76
2022/05/29 04:22:35;;;;;;;4.07;1.67;;;;;;;9.36;72.46;98720.56;5077999;28;20058;-75
2022/05/29 04:25:00;;;;;;;3.70;2.08;;;;;;;9.10;73.92;98719.97;5096362;28;20039;-75
2022/05/29 04:27:25;;;;;;;5.07;2.08;;;;;;;8.89;74.74;98716.38;5077742;28;20057;-75
2022/05/29 04:29:50;;;;;;;6.30;2.17;;;;;;;8.78;75.39;98723.50;5078071;28;20035;-74
2022/05/29 04:34:58;;;;;;;1.23;0.85;;;;;;;8.61;76.23;98733.63;5033197;28;20055;-75
2022/05/29 04:37:24;;;;;;;2.92;2.10;;;;;;;8.49;77.62;98731.06;5033674;28;20048;-74
2022/05/29 04:39:49;;;;;;;3.28;1.80;;;;;;;8.52;77.54;98730.84;5016464;28;20052;-75
2022/05/29 04:42:14;;;;;;;3.55;1.92;;;;;;;8.59;78.26;98730.25;5016808;28;20102;-75
2022/05/29 04:44:38;;;;;;;4.75;1.60;;;;;;;8.78;78.48;98729.66;5016010;28;20471;-75
2022/05/29 04:47:03;;;;;;;1.30;1.20;;;;;;;9.06;78.44;98737.13;5016167;28;20486;-75
2022/05/29 04:49:29;;;;;;;7.15;2.20;;;;;;;9.38;78.41;98731.88;4999582;28;20045;-75
2022/05/29 04:51:54;;;;;;;6.72;2.22;;;;;;;9.57;77.71;98728.59;5017508;28;20127;-75
2022/05/29 04:54:19;;;;;;;3.53;1.70;;;;;;;9.71;76.27;98735.41;5033231;28;20183;-75
2022/05/29 04:56:48;;;;;;;2.70;1.80;;;;;;;9.80;76.02;98727.53;5036816;28;20040;-75
2022/05/29 04:59:12;;;;;;;4.40;1.95;;;;;;;9.73;74.92;98737.00;5055223;28;20060;-75
2022/05/29 05:01:38;;;;;;;3.60;2.20;;;;;;;9.78;75.38;98742.78;5053388;28;20068;-76
2022/05/29 05:04:03;;;;;;;5.10;2.42;;;;;;;9.77;75.25;98754.41;5020253;28;20050;-76
2022/05/29 05:06:28;;;;;;;2.10;1.83;;;;;;;9.80;75.54;98748.00;5069060;28;20066;-77
2022/05/29 05:08:53;;;;;;;2.38;1.67;;;;;;;9.68;75.42;98747.19;5089869;28;20050;-76
2022/05/29 05:11:18;;;;;;;3.15;2.08;;;;;;;9.58;74.98;98750.72;5109090;28;20106;-76
2022/05/29 05:13:42;;;;;;;2.90;1.67;;;;;;;9.52;75.55;98756.53;5087569;27;20103;-75
2022/05/29 05:16:07;;;;;;;4.82;2.65;;;;;;;9.59;76.31;98763.91;5081453;27;20053;-78
2022/05/29 05:18:32;;;;;;;3.33;1.95;;;;;;;9.78;76.04;98774.72;5099324;27;20035;-76
2022/05/29 05:20:57;;;;;;;3.45;1.65;;;;;;;9.94;75.71;98771.63;5081164;27;20445;-75
2022/05/29 05:23:22;;;;;;;3.55;1.88;;;;;;;10.09;74.63;98777.50;5064343;27;20034;-77
2022/05/29 05:25:46;;;;;;;1.42;1.33;;;;;;;10.36;74.27;98783.25;5087109;27;20035;-76
2022/05/29 05:28:11;;;;;;;3.50;2.17;;;;;;;10.69;73.19;98776.88;5073497;28;20051;-76
2022/05/29 05:30:36;;;;;;;4.50;2.13;;;;;;;11.17;72.07;98782.41;5064587;28;20048;-77
2022/05/29 05:33:01;;;;;;;2.10;1.15;;;;;;;11.53;70.03;98783.66;5088090;28;20031;-77
2022/05/29 05:35:25;;;;;;;2.65;1.70;;;;;;;11.71;68.53;98783.88;5046480;28;20047;-76
2022/05/29 05:37:50;;;;;;;2.55;1.45;;;;;;;11.77;68.80;98778.00;5044602;28;20117;-77
2022/05/29 05:40:15;;;;;;;1.95;1.45;;;;;;;11.75;68.14;98787.09;5079389;28;20052;-76
2022/05/29 05:42:40;;;;;;;1.67;1.55;;;;;;;11.84;68.09;98788.97;5060001;28;20424;-75
2022/05/29 05:45:07;;;;;;;2.30;1.58;;;;;;;12.11;67.31;98785.63;5060534;28;20418;-76
2022/05/29 05:47:32;;;;;;;1.70;1.30;;;;;;;12.88;66.86;98788.19;5043246;28;20130;-75
2022/05/29 05:49:56;;;;;;;2.58;1.67;;;;;;;13.76;64.59;98793.91;5043503;28;20047;-77
2022/05/29 05:52:21;;;;;;;1.48;1.38;;;;;;;14.78;59.82;98785.50;5060659;28;20047;-75
2022/05/29 05:54:46;;;;;;;3.20;1.40;;;;;;;15.35;57.32;98786.63;5079421;28;20421;-77
2022/05/29 05:57:11;;;;;;;3.28;1.55;;;;;;;15.55;55.58;98788.13;5079276;28;20044;-76
2022/05/29 05:59:38;;;;;;;1.27;1.02;;;;;;;15.60;54.38;98790.31;5079779;28;20070;-77
2022/05/29 06:02:04;;;;;;;2.25;1.13;;;;;;;15.08;54.93;98795.75;5079324;28;20051;-78
2022/05/29 06:04:28;;;;;;;1.55;1.45;;;;;;;14.40;56.63;98800.94;5078506;28;20047;-78
2022/05/29 06:06:54;;;;;;;1.83;1.25;;;;;;;13.74;59.36;98803.09;5064216;28;20036;-76
2022/05/29 06:09:20;;;;;;;1.65;1.40;;;;;;;13.28;61.01;98806.69;5047516;28;20043;-76
2022/05/29 06:11:45;;;;;;;1.55;1.20;;;;;;;13.12;62.16;98807.28;5083012;28;20063;-75
2022/05/29 06:14:10;;;;;;;3.47;1.92;;;;;;;13.13;62.72;98816.16;5080636;28;20062;-76
2022/05/29 06:16:36;;;;;;;2.38;1.20;;;;;;;13.22;63.45;98816.13;5077955;28;20086;-77
2022/05/29 06:19:02;;;;;;;2.50;1.27;;;;;;;13.28;61.89;98822.75;5060149;28;20091;-78
2022/05/29 06:21:27;;;;;;;2.42;0.95;;;;;;;13.09;60.83;98824.47;5059882;28;20032;-78
2022/05/29 06:23:52;;;;;;;1.75;0.98;;;;;;;13.17;60.90;98837.16;5077421;28;20043;-78
2022/05/29 06:26:17;;;;;;;2.83;1.67;;;;;;;13.21;59.68;98833.19;5060041;28;20084;-76
2022/05/29 06:28:42;;;;;;;3.78;1.08;;;;;;;13.18;59.04;98833.50;5059685;28;20052;-78
2022/05/29 06:31:10;;;;;;;1.23;0.98;;;;;;;13.22;59.52;98839.38;5044625;28;20399;-77
2022/05/29 06:33:36;;;;;;;1.42;1.13;;;;;;;13.20;58.85;98852.94;5039248;28;20035;-75
2022/05/29 06:36:13;;;;;;;0.70;0.70;;;;;;;13.56;59.61;98845.88;5059084;28;20043;-77
2022/05/29 06:38:38;;;;;;;1.08;0.70;;;;;;;14.14;58.20;98850.91;5058201;28;20044;-77
2022/05/29 06:41:05;;;;;;;1.98;1.42;;;;;;;14.62;57.19;98852.44;5039663;28;20036;-78
2022/05/29 06:43:29;;;;;;;2.75;1.25;;;;;;;14.99;55.79;98849.53;5061368;28;20117;-78
2022/05/29 06:45:58;;;;;;;2.03;0.98;;;;;;;15.29;53.25;98845.53;5064497;28;20040;-78
2022/05/29 06:48:23;;;;;;;1.30;1.13;;;;;;;15.72;53.60;98849.97;5037410;28;20060;-75
2022/05/29 06:50:48;;;;;;;4.15;1.70;;;;;;;15.97;53.63;98862.53;5074860;28;20066;-80
2022/05/29 06:53:14;;;;;;;1.08;1.08;;;;;;;15.81;52.33;98849.84;5060080;28;20044;-77
2022/05/29 06:55:38;;;;;;;1.85;1.50;;;;;;;15.70;53.70;98862.72;5068470;28;20622;-77
2022/05/29 06:58:03;;;;;;;1.65;1.30;;;;;;;15.43;53.82;98859.22;5073628;28;20047;-77
2022/05/29 07:08:41;;;;;;;1.95;1.40;;;;;;;14.33;56.22;98880.28;5044598;28;20047;-77
2022/05/29 07:11:10;;;;;;;2.35;1.77;;;;;;;14.04;56.32;98891.19;5061365;28;20046;-78
2022/05/29 07:13:36;;;;;;;1.10;1.10;;;;;;;13.90;56.92;98883.63;5046884;28;20103;-77
2022/05/29 07:16:01;;;;;;;1.98;1.63;;;;;;;13.90;57.57;98883.63;5048849;28;20032;-77
2022/05/29 07:18:26;;;;;;;2.20;1.58;;;;;;;14.01;58.27;98879.91;5012451;28;20044;-77
2022/05/29 07:20:51;;;;;;;3.40;1.70;;;;;;;14.00;57.48;98884.44;5059217;28;20071;-76
2022/05/29 07:23:16;;;;;;;2.30;1.80;;;;;;;13.99;58.44;98896.16;5022658;28;20486;-76
2022/05/29 07:25:41;;;;;;;2.70;2.00;;;;;;;13.80;58.66;98897.09;5057210;28;20062;-76
2022/05/29 07:28:06;;;;;;;1.40;1.30;;;;;;;13.85;59.06;98895.81;5038549;28;20059;-77
2022/05/29 07:30:31;;;;;;;4.40;1.63;;;;;;;14.00;58.50;98905.03;5057186;28;20043;-76
2022/05/29 07:32:58;;;;;;;4.05;1.80;;;;;;;14.35;57.78;98899.72;5056862;28;20063;-77
2022/05/29 07:35:23;;;;;;;2.45;1.55;;;;;;;14.66;56.39;98902.94;5055933;28;20035;-77
2022/05/29 07:37:48;;;;;;;2.33;1.83;;;;;;;15.01;55.76;98906.59;5056008;28;20040;-77
2022/05/29 07:40:13;;;;;;;4.53;1.38;;;;;;;15.69;53.97;98901.38;5056671;28;20056;-76
2022/05/29 07:45:21;;;;;;;2.58;1.40;;;;;;;17.15;51.05;98907.13;5056891;28;20127;-77
2022/05/29 07:47:46;;;;;;;1.60;1.50;;;;;;;17.29;49.08;98909.97;5042559;28;20071;-77
2022/05/29 07:50:15;;;;;;;1.65;1.55;;;;;;;17.57;47.62;98912.28;5040784;28;20060;-77
2022/05/29 07:52:39;;;;;;;3.53;1.20;;;;;;;18.29;47.27;98915.75;5038434;28;20461;-76
2022/05/29 07:55:05;;;;;;;1.90;1.80;;;;;;;19.46;45.22;98919.00;5021132;28;20455;-77
2022/05/29 07:57:29;;;;;;;3.13;1.73;;;;;;;20.28;43.72;98911.66;5056255;28;20101;-78
2022/05/29 07:59:54;;;;;;;1.88;1.75;;;;;;;20.44;42.42;98909.78;5038571;28;20127;-78
2022/05/29 08:02:19;;;;;;;3.25;2.50;;;;;;;21.05;42.22;98913.78;5037739;28;20048;-77
2022/05/29 08:04:45;;;;;;;2.45;1.98;;;;;;;22.50;39.43;98916.66;5037956;28;20074;-78
2022/05/29 08:07:13;;;;;;;2.55;1.77;;;;;;;23.83;36.51;98920.19;5055608;28;20051;-78
2022/05/29 08:09:38;;;;;;;4.93;1.73;;;;;;;25.13;33.02;98923.66;5060136;28;20042;-77
2022/05/29 08:12:04;;;;;;;2.13;1.83;;;;;;;25.74;33.15;98928.44;5039252;28;20130;-78
2022/05/29 08:14:29;;;;;;;2.55;1.50;;;;;;;26.13;32.44;98922.56;5020192;28;20134;-77
2022/05/29 08:16:55;;;;;;;3.85;2.28;;;;;;;27.65;30.25;98920.53;5055176;28;20044;-78
2022/05/29 08:19:19;;;;;;;2.25;2.08;;;;;;;29.64;27.23;98924.31;5054938;28;20108;-78
2022/05/29 08:21:44;;;;;;;3.38;2.22;;;;;;;30.89;25.75;98922.78;5055127;28;20059;-77
2022/05/29 08:32:19;;;;;;;4.20;2.20;;;;;;;25.58;30.04;98930.66;5057050;28;20562;-77
2022/05/29 08:34:43;;;;;;;3.17;1.92;;;;;;;24.25;31.10;98931.66;5076688;28;20545;-75
2022/05/29 08:37:08;;;;;;;3.35;1.85;;;;;;;22.19;32.97;98930.72;5057262;28;20196;-76
2022/05/29 08:39:35;;;;;;;1.80;1.70;;;;;;;20.85;34.95;98931.72;5057223;28;20043;-77
2022/05/29 08:42:00;;;;;;;2.28;1.75;;;;;;;21.98;34.64;98935.22;5057578;28;20047;-77
2022/05/29 08:44:46;;;;;;;4.40;2.60;;;;;;;24.58;30.65;98935.06;5024016;28;20043;-76
2022/05/29 08:47:12;;;;;;;2.50;2.30;;;;;;;26.51;28.67;98933.31;5058415;28;20073;-77
2022/05/29 08:49:40;;;;;;;3.08;2.17;;;;;;;27.16;27.71;98944.44;5079516;28;20051;-76
2022/05/29 08:52:30;;;;;;;3.63;2.50;;;;;;;26.49;27.96;98942.78;5061280;28;20391;-76
2022/05/29 08:55:13;;;;;;;4.22;2.53;;;;;;;24.84;30.61;98955.91;5027718;28;20042;-76
2022/05/29 08:57:56;;;;;;;2.70;2.30;;;;;;;22.62;33.52;98956.63;5027037;28;20094;-76
2022/05/29 09:00:36;;;;;;;3.80;2.33;;;;;;;22.41;35.89;98956.75;5078928;28;20557;-77
2022/05/29 09:03:07;;;;;;;2.20;2.00;;;;;;;23.94;34.27;98962.25;5061182;28;20381;-77
2022/05/29 09:05:37;;;;;;;2.75;2.13;;;;;;;25.66;31.00;98956.88;5078993;28;20031;-75
2022/05/29 09:08:11;;;;;;;2.08;1.90;;;;;;;26.60;29.15;98956.53;5060642;28;20101;-76
2022/05/29 09:10:40;;;;;;;2.58;2.13;;;;;;;26.20;29.43;98955.28;5079095;28;20059;-78
2022/05/29 09:13:13;;;;;;;2.17;2.00;;;;;;;24.90;29.95;98962.38;5060784;28;20144;-76
2022/05/29 09:15:51;;;;;;;3.10;1.85;;;;;;;23.14;32.22;98965.97;5060740;28;20051;-77
2022/05/29 09:18:30;;;;;;;4.43;2.60;;;;;;;22.53;34.08;98965.16;5078950;28;20039;-75
2022/05/29 09:21:05;;;;;;;2.67;2.13;;;;;;;24.66;32.32;98969.41;5060589;28;20035;-78
2022/05/29 09:23:36;;;;;;;3.42;2.05;;;;;;;27.04;27.91;98971.75;5078585;28;20122;-77
2022/05/29 09:26:06;;;;;;;2.13;2.03;;;;;;;28.56;25.12;98968.38;5043602;28;20054;-77
2022/05/29 09:28:39;;;;;;;2.58;2.33;;;;;;;30.08;23.82;98965.69;5043603;28;20104;-78
2022/05/29 09:31:12;;;;;;;3.70;2.88;;;;;;;32.38;22.35;98960.47;5060202;28;20124;-70
2022/05/29 09:33:38;;;;;;;2.42;2.22;;;;;;;30.94;22.07;98975.94;5059728;28;20406;-71
2022/05/29 09:36:19;;;;;;;2.22;2.13;;;;;;;28.51;25.34;98974.56;5077783;28;20350;-70
2022/05/29 09:39:08;;;;;;;3.08;2.05;;;;;;;25.53;29.78;98978.78;5042717;28;20414;-70
2022/05/29 09:42:25;;;;;;;2.78;2.58;;;;;;;23.77;31.87;98982.81;5059615;28;20042;-70
2022/05/29 09:45:14;;;;;;;2.28;2.00;;;;;;;22.16;34.67;98985.44;4998586;28;20051;-71
2022/05/29 09:50:37;;;;;;;2.50;1.90;;;;;;;20.18;38.61;98984.19;5015651;28;20057;-71
2022/05/29 09:53:02;;;;;;;9.88;4.93;;;;;;;19.48;39.68;98981.00;5015687;28;20068;-72
2022/05/29 09:55:36;;;;;;;3.65;2.03;;;;;;;19.31;40.71;98985.66;5015234;28;20063;-71
2022/05/29 09:58:02;;;;;;;;;;;;;;;21.14;41.67;98987.66;5015543;28;20064;-71
2022/05/29 10:00:29;;;;;;;2.83;2.20;;;;;;;24.61;33.25;98977.38;5014212;28;19916;-72
2022/05/29 10:02:55;;;;;;;2.58;2.38;;;;;;;27.81;28.55;98980.06;4998355;28;20532;-70
2022/05/29 10:05:30;;;;;;;2.47;2.17;;;;;;;30.25;24.70;98986.56;5015250;28;20107;-71
2022/05/29 10:08:15;;;;;;;2.72;2.53;;;;;;;31.06;21.93;98986.81;4997929;28;20191;-70
2022/05/29 10:10:40;;;;;;;2.80;2.60;;;;;;;31.87;21.77;98993.16;4998600;28;20044;-71
2022/05/29 10:13:05;;;;;;;2.92;2.60;;;;;;;32.34;21.26;98998.78;4998001;28;20044;-70
2022/05/29 10:15:30;;;;;;;2.83;2.65;;;;;;;32.98;20.09;98981.97;5031888;28;20059;-70
2022/05/29 10:18:05;;;;;;;3.85;3.03;;;;;;;32.71;20.05;98992.38;5025363;28;20047;-70
2022/05/29 10:20:30;;;;;;;4.03;2.70;;;;;;;33.16;20.25;98991.72;5076005;28;20051;-70
2022/05/29 10:22:56;;;;;;;3.67;3.35;;;;;;;33.45;19.54;98987.38;5077536;28;20050;-71
2022/05/29 10:25:27;;;;;;;5.78;3.50;;;;;;;33.97;18.46;99002.09;5078006;28;20040;-71
2022/05/29 10:27:54;;;;;;;3.40;3.10;;;;;;;32.56;19.70;98986.75;5078832;28;20457;-73
2022/05/29 10:30:54;;;;;;;2.95;2.75;;;;;;;30.77;21.18;98982.63;5042266;28;20460;-71
2022/05/29 10:33:22;;;;;;;3.05;2.80;;;;;;;27.72;24.80;98986.97;5042684;28;20078;-71
2022/05/29 10:35:47;;;;;;;3.60;2.70;;;;;;;25.36;27.77;98983.13;5025553;28;20047;-70
2022/05/29 10:38:18;;;;;;;3.22;2.40;;;;;;;23.62;30.58;98982.16;5078063;28;20865;-71
2022/05/29 10:40:46;;;;;;;2.88;2.42;;;;;;;22.41;32.55;98990.19;5041871;28;20039;-70
2022/05/29 10:43:11;;;;;;;4.28;2.13;;;;;;;21.49;33.62;98988.66;5041995;28;20046;-71
2022/05/29 10:45:46;;;;;;;1.92;1.75;;;;;;;21.06;34.64;98983.22;5058710;28;20047;-70
2022/05/29 10:48:32;;;;;;;3.00;2.13;;;;;;;20.08;36.06;98991.75;5076854;28;20067;-71
2022/05/29 10:51:08;;;;;;;2.92;2.55;;;;;;;19.30;37.26;98985.88;5076787;28;20047;-70
2022/05/29 10:53:58;;;;;;;2.53;2.28;;;;;;;18.91;37.46;98992.22;5084344;27;20484;-70
2022/05/29 10:57:01;;;;;;;3.50;2.60;;;;;;;18.33;38.13;99000.75;5078911;27;20043;-70
2022/05/29 10:59:28;;;;;;;2.50;1.85;;;;;;;17.80;40.10;99004.09;5034072;28;20487;-72
2022/05/29 11:05:13;;;;;;;3.42;1.98;;;;;;;17.71;41.34;99012.22;5001753;28;20044;-71
2022/05/29 11:07:43;;;;;;;2.78;2.13;;;;;;;17.52;41.78;99015.22;5036990;28;20044;-71
2022/05/29 11:10:51;;;;;;;2.58;2.10;;;;;;;17.46;40.29;99028.53;5053847;28;20083;-72
2022/05/29 11:13:43;;;;;;;2.15;1.73;;;;;;;17.32;40.13;99032.72;5041547;28;20044;-71
2022/05/29 11:16:41;;;;;;;2.53;1.88;;;;;;;17.32;39.67;99048.88;5017185;28;20052;-70
2022/05/29 11:19:21;;;;;;;3.17;2.13;;;;;;;17.30;40.24;99058.97;5033876;28;20040;-73
2022/05/29 11:22:01;;;;;;;3.15;1.70;;;;;;;17.20;40.33;99061.00;5033428;28;20049;-70
2022/05/29 11:25:06;;;;;;;2.35;1.52;;;;;;;17.11;40.67;99065.53;5016875;28;20044;-69
2022/05/29 11:28:04;;;;;;;4.35;1.45;;;;;;;16.63;40.66;99071.59;5020023;28;20059;-69
2022/05/29 11:31:06;;;;;;;2.78;1.45;;;;;;;15.93;42.36;99077.06;5053310;28;20453;-68
2022/05/29 11:33:45;;;;;;;3.25;2.50;;;;;;;15.59;43.14;99084.16;5055571;28;20811;-72
2022/05/29 11:36:31;;;;;;;4.03;2.10;;;;;;;15.21;44.08;99077.25;5057017;28;20051;-71
2022/05/29 11:39:14;;;;;;;10.05;2.25;;;;;;;14.72;45.67;99075.88;5034224;28;20499;-71
2022/05/29 11:41:45;;;;;;;2.40;1.90;;;;;;;14.18;48.24;99075.66;5046156;28;20122;-74
2022/05/29 11:44:19;;;;;;;2.17;1.63;;;;;;;13.73;50.08;99066.59;5034797;28;20051;-74
2022/05/29 11:52:37;;;;;;;2.60;1.75;;;;;;;12.81;52.25;99049.22;5056099;28;20050;-69
2022/05/29 11:55:07;;;;;;;1.23;1.13;;;;;;;12.68;53.30;99054.81;5039352;28;20123;-72
2022/05/29 11:57:40;;;;;;;3.92;1.23;;;;;;;12.83;53.72;99071.34;5039445;28;20135;-71
2022/05/29 12:00:18;;;;;;;2.58;1.70;;;;;;;13.22;53.06;99059.72;5062955;28;20044;-67
2022/05/29 12:03:04;;;;;;;2.53;2.30;;;;;;;13.60;51.56;99052.66;5037571;28;20048;-72
2022/05/29 12:05:34;;;;;;;4.43;1.73;;;;;;;14.05;50.06;99056.38;5037983;28;20048;-71
2022/05/29 12:08:05;;;;;;;2.30;1.90;;;;;;;14.26;48.27;99057.97;5055369;28;20056;-70
2022/05/29 12:11:15;;;;;;;0.82;0.82;;;;;;;14.38;47.37;99054.13;5038126;28;20059;-69
2022/05/29 12:14:29;;;;;;;1.60;1.25;;;;;;;14.44;47.59;99051.75;4999983;28;20061;-73
2022/05/29 12:16:59;;;;;;;1.50;1.40;;;;;;;14.39;47.71;99064.75;4989246;28;20049;-71
2022/05/29 12:19:31;;;;;;;4.13;1.73;;;;;;;14.28;47.97;99064.03;4960291;28;20052;-73
2022/05/29 12:22:05;;;;;;;4.43;2.33;;;;;;;14.17;47.90;99067.75;4992853;28;20095;-70
2022/05/29 12:24:34;;;;;;;3.03;2.00;;;;;;;14.05;48.85;99069.78;4976882;28;20627;-73
2022/05/29 12:27:11;;;;;;;3.40;2.10;;;;;;;13.98;47.81;99076.72;4993628;28;20497;-77
2022/05/29 12:29:48;;;;;;;4.38;1.90;;;;;;;13.99;49.55;99081.09;4941476;28;20551;-70
2022/05/29 12:32:23;;;;;;;4.32;1.98;;;;;;;13.98;48.33;99079.38;4958317;28;20184;-73
2022/05/29 12:34:47;;;;;;;;;;;;;;;14.03;47.68;99079.78;4941573;28;20140;-72
2022/05/29 12:37:12;;;;;;;;;;;;;;;14.05;48.02;99072.44;4974657;28;20000;-73
2022/05/29 12:40:05;;;;;;;2.07;1.97;;;;;;;13.92;50.03;99074.59;4969350;28;19924;-73